Time;durP1;ratioP1;P1;durP2;ratioP2;P2;SDS_P1;SDS_P2;PMS_P1;PMS_P2;Temp;Humidity;BMP_temperature;BMP_pressure;BME280_temperature;BME280_humidity;BME280_pressure;Samples;Min_cycle;Max_cycle;Signal;HPM_P1;HPM_P2
2022/11/08 00:02:27;;;;;;;40.55;19.65;;;;;;;2.86;100.00;99888.66;1691015;83;21097;-76
2022/11/08 00:16:17;;;;;;;41.63;20.43;;;;;;;2.80;100.00;99885.63;1656613;83;20987;-77
2022/11/08 00:18:49;;;;;;;49.30;19.87;;;;;;;2.79;100.00;99888.59;1666251;85;20979;-77
2022/11/08 00:21:19;;;;;;;42.60;19.55;;;;;;;2.76;100.00;99876.36;1693182;83;20928;-77
2022/11/08 00:23:49;;;;;;;43.23;20.80;;;;;;;2.76;100.00;99870.13;1709350;83;20900;-77
2022/11/08 00:26:24;;;;;;;51.15;22.58;;;;;;;2.76;100.00;99859.28;1666285;85;20904;-77
2022/11/08 00:29:00;;;;;;;47.25;22.27;;;;;;;2.73;100.00;99865.21;1699827;83;21086;-77
2022/11/08 00:31:33;;;;;;;39.92;19.98;;;;;;;2.72;100.00;99869.00;1704652;83;21628;-77
2022/11/08 00:34:02;;;;;;;40.33;20.30;;;;;;;2.73;100.00;99865.21;1695677;83;21258;-77
2022/11/08 00:36:33;;;;;;;37.63;19.90;;;;;;;2.70;100.00;99861.13;1681805;83;21037;-77
2022/11/08 00:39:04;;;;;;;49.13;21.17;;;;;;;2.64;100.00;99861.61;1702495;83;20979;-77
2022/11/08 00:41:32;;;;;;;46.20;21.35;;;;;;;2.61;100.00;99862.12;1670967;83;20951;-76
2022/11/08 00:44:01;;;;;;;42.75;20.60;;;;;;;2.57;100.00;99852.86;1703422;83;20985;-77
2022/11/08 00:46:32;;;;;;;46.08;20.75;;;;;;;2.57;100.00;99859.64;1698305;83;21578;-77
2022/11/08 00:49:02;;;;;;;37.78;18.57;;;;;;;2.58;100.00;99859.09;1648346;85;21000;-77
2022/11/08 00:51:36;;;;;;;40.95;19.95;;;;;;;2.60;100.00;99861.83;1630690;87;21051;-77
2022/11/08 00:54:13;;;;;;;38.78;18.92;;;;;;;2.61;100.00;99862.12;1675547;83;20935;-77
2022/11/08 00:56:49;;;;;;;43.40;20.88;;;;;;;2.58;100.00;99851.78;1675395;83;20986;-77
2022/11/08 00:59:21;;;;;;;42.08;19.00;;;;;;;2.58;100.00;99850.43;1700867;83;21253;-77
2022/11/08 01:01:58;;;;;;;39.30;19.10;;;;;;;2.57;100.00;99840.66;1660660;85;21031;-77
2022/11/08 01:04:25;;;;;;;34.03;17.02;;;;;;;2.57;100.00;99850.15;1593437;87;21027;-77
2022/11/08 01:06:55;;;;;;;37.17;18.77;;;;;;;2.58;100.00;99847.72;1661813;85;21145;-77
2022/11/08 01:09:27;;;;;;;37.08;19.05;;;;;;;2.57;100.00;99849.33;1605536;87;21521;-77
2022/11/08 01:11:59;;;;;;;37.48;18.85;;;;;;;2.53;100.00;99843.60;1661733;85;22117;-76
2022/11/08 01:14:32;;;;;;;39.90;18.73;;;;;;;2.49;100.00;99834.34;1646979;85;21416;-76
2022/11/08 01:16:58;;;;;;;34.25;17.37;;;;;;;2.48;100.00;99830.53;1666028;85;21022;-77
2022/11/08 01:19:30;;;;;;;42.48;19.12;;;;;;;2.48;100.00;99824.58;1650603;85;21059;-76
2022/11/08 01:22:09;;;;;;;41.45;18.67;;;;;;;2.46;100.00;99821.31;1650007;85;21032;-77
2022/11/08 01:24:42;;;;;;;36.63;18.55;;;;;;;2.46;100.00;99810.47;1647740;85;26973;-76
2022/11/08 01:27:10;;;;;;;34.97;18.20;;;;;;;2.45;100.00;99810.73;1676974;83;20987;-76
2022/11/08 01:29:42;;;;;;;43.63;20.92;;;;;;;2.46;100.00;99810.47;1699001;83;20951;-77
2022/11/08 01:32:11;;;;;;;;;;;;;;;2.45;100.00;99807.48;1700853;83;21047;-76
2022/11/08 01:34:45;;;;;;;33.90;17.85;;;;;;;2.46;100.00;99811.00;1690320;83;20437;-77
2022/11/08 01:37:22;;;;;;;38.25;18.70;;;;;;;2.45;100.00;99822.38;1701749;83;21088;-77
2022/11/08 01:39:57;;;;;;;37.58;18.75;;;;;;;2.44;100.00;99821.28;1693876;83;20985;-77
2022/11/08 01:42:30;;;;;;;41.68;20.02;;;;;;;2.42;100.00;99818.83;1699195;83;21018;-76
2022/11/08 01:45:06;;;;;;;47.67;20.75;;;;;;;2.41;100.00;99821.26;1703955;83;21537;-77
2022/11/08 01:47:38;;;;;;;35.55;18.82;;;;;;;2.42;100.00;99807.98;1677847;83;20935;-77
2022/11/08 01:50:24;;;;;;;38.50;19.48;;;;;;;2.43;100.00;99808.80;1684632;83;21163;-76
2022/11/08 01:52:55;;;;;;;36.88;18.80;;;;;;;2.43;100.00;99809.63;1672851;83;21085;-77
2022/11/08 01:55:31;;;;;;;33.05;17.52;;;;;;;2.44;100.00;99816.68;1671756;83;21026;-76
2022/11/08 01:58:05;;;;;;;40.08;19.60;;;;;;;2.45;100.00;99823.73;1663125;83;20995;-76
2022/11/08 02:00:41;;;;;;;40.48;21.40;;;;;;;2.47;100.00;99824.30;1670013;83;21105;-76
2022/11/08 02:03:20;;;;;;;44.05;21.55;;;;;;;2.49;100.00;99833.53;1647960;85;20983;-76
2022/11/08 02:05:54;;;;;;;52.70;27.95;;;;;;;2.50;100.00;99831.10;1654564;83;21220;-76
2022/11/08 02:08:41;;;;;;;58.78;33.53;;;;;;;2.53;100.00;99832.77;1660537;84;21057;-76
2022/11/08 02:11:15;;;;;;;52.85;27.77;;;;;;;2.56;100.00;99824.66;1691958;83;21038;-76
2022/11/08 02:13:45;;;;;;;69.45;30.27;;;;;;;2.56;100.00;99830.08;1673728;84;21505;-76
2022/11/08 02:16:17;;;;;;;44.53;23.10;;;;;;;2.55;100.00;99827.91;1691705;82;21431;-76
2022/11/08 02:18:50;;;;;;;37.42;19.02;;;;;;;2.58;100.00;99829.28;1613614;86;21189;-76
2022/11/08 02:21:27;;;;;;;41.70;20.25;;;;;;;2.61;100.00;99830.95;1651778;85;21048;-76
2022/11/08 02:23:59;;;;;;;33.95;17.60;;;;;;;2.60;100.00;99825.24;1634361;85;21260;-76
2022/11/08 02:26:34;;;;;;;35.13;18.25;;;;;;;2.58;100.00;99826.04;1637525;85;21032;-76
2022/11/08 02:29:32;;;;;;;35.68;17.70;;;;;;;2.59;100.00;99821.44;1641804;85;21339;-76
2022/11/08 02:32:05;;;;;;;35.28;17.25;;;;;;;2.58;100.00;99822.52;1612148;86;21135;-76
2022/11/08 02:34:37;;;;;;;28.23;15.50;;;;;;;2.56;100.00;99825.48;1636128;85;21650;-76
2022/11/08 02:37:08;;;;;;;45.95;21.80;;;;;;;2.57;100.00;99827.65;1643914;85;20968;-76
2022/11/08 02:39:41;;;;;;;31.30;16.75;;;;;;;2.55;100.00;99828.44;1657815;85;20971;-77
2022/11/08 02:42:15;;;;;;;34.50;17.70;;;;;;;2.52;100.00;99830.31;1639357;85;21562;-76
2022/11/08 02:44:55;;;;;;;35.08;17.17;;;;;;;2.53;100.00;99827.34;1636300;85;21515;-76
2022/11/08 02:47:29;;;;;;;35.68;17.00;;;;;;;2.54;100.00;99824.91;1635198;85;21257;-76
2022/11/08 02:50:02;;;;;;;35.70;16.97;;;;;;;2.53;100.00;99824.63;1632400;84;21028;-77
2022/11/08 02:52:35;;;;;;;29.90;16.95;;;;;;;2.54;100.00;99832.23;1643318;85;21123;-77
2022/11/08 02:55:09;;;;;;;32.20;17.17;;;;;;;2.54;100.00;99824.91;1645680;85;21178;-77
2022/11/08 02:57:39;;;;;;;34.00;18.17;;;;;;;2.55;100.00;99829.26;1640688;85;21618;-76
2022/11/08 03:00:09;;;;;;;30.77;17.35;;;;;;;2.56;100.00;99826.02;1649173;85;20956;-76
2022/11/08 03:02:38;;;;;;;34.40;16.85;;;;;;;2.55;100.00;99825.20;1632917;85;20976;-76
2022/11/08 03:05:09;;;;;;;42.88;20.17;;;;;;;2.55;100.00;99831.16;1639287;85;21040;-76
2022/11/08 03:07:43;;;;;;;31.20;17.45;;;;;;;2.57;100.00;99824.94;1666392;85;21016;-76
2022/11/08 03:10:20;;;;;;;41.02;19.57;;;;;;;2.58;100.00;99830.10;1662513;85;21020;-76
2022/11/08 03:12:59;;;;;;;37.58;19.70;;;;;;;2.60;100.00;99827.95;1657711;85;21562;-76
2022/11/08 03:15:34;;;;;;;41.15;22.75;;;;;;;2.64;100.00;99831.79;1650478;85;21380;-76
2022/11/08 03:18:05;;;;;;;34.60;18.67;;;;;;;2.67;100.00;99831.00;1641596;84;21078;-76
2022/11/08 03:20:35;;;;;;;36.83;18.20;;;;;;;2.68;100.00;99833.98;1620643;86;21464;-77
2022/11/08 03:23:11;;;;;;;40.95;20.35;;;;;;;2.65;100.00;99833.42;1644253;85;20977;-77
2022/11/08 03:25:44;;;;;;;41.10;21.75;;;;;;;2.66;100.00;99834.24;1623370;86;21732;-77
2022/11/08 03:28:15;;;;;;;66.65;30.45;;;;;;;2.68;100.00;99827.21;1614812;87;20991;-77
2022/11/08 03:30:47;;;;;;;52.95;25.05;;;;;;;2.71;100.00;99836.19;1612033;86;21054;-77
2022/11/08 03:33:18;;;;;;;41.28;21.90;;;;;;;2.72;100.00;99833.75;1624097;86;21889;-76
2022/11/08 03:35:50;;;;;;;46.13;25.43;;;;;;;2.73;100.00;99833.50;1624250;86;21086;-77
2022/11/08 03:38:19;;;;;;;56.95;25.48;;;;;;;2.76;100.00;99826.74;1644014;84;20992;-77
2022/11/08 03:40:45;;;;;;;44.88;23.25;;;;;;;2.77;100.00;99826.48;1659070;84;20972;-76
2022/11/08 03:43:13;;;;;;;46.50;27.00;;;;;;;2.79;100.00;99825.69;1661275;84;21546;-77
2022/11/08 03:45:46;;;;;;;42.48;21.30;;;;;;;2.84;100.00;99828.98;1662037;84;21571;-76
2022/11/08 03:48:13;;;;;;;45.95;24.12;;;;;;;2.87;100.00;99826.58;1659309;84;21257;-76
2022/11/08 03:50:46;;;;;;;43.33;19.82;;;;;;;2.90;100.00;99823.86;1654212;85;21007;-76
2022/11/08 03:53:18;;;;;;;32.88;16.20;;;;;;;2.93;100.00;99826.05;1659635;84;21552;-77
2022/11/08 03:55:47;;;;;;;28.35;15.00;;;;;;;2.93;100.00;99819.27;1658817;84;21087;-76
2022/11/08 03:58:17;;;;;;;25.97;14.55;;;;;;;2.94;100.00;99827.69;1616210;85;21227;-77
2022/11/08 04:00:46;;;;;;;37.10;16.07;;;;;;;2.95;100.00;99822.00;1659880;85;21090;-77
2022/11/08 04:03:20;;;;;;;23.70;14.33;;;;;;;2.94;100.00;99822.27;1657085;85;20911;-76
2022/11/08 04:05:49;;;;;;;;;;;;;;;2.93;100.00;99822.80;1604968;87;20979;-77
2022/11/08 04:08:21;;;;;;;35.75;19.42;;;;;;;2.94;100.00;99831.22;1656344;84;20126;-76
2022/11/08 04:15:13;;;;;;;50.35;25.68;;;;;;;2.95;100.00;99827.97;1657393;84;21279;-76
2022/11/08 04:16:17;;;;;;;49.98;23.22;;;;;;;2.98;100.00;99828.27;1661383;85;20991;-77
2022/11/08 04:21:33;;;;;;;44.25;21.35;;;;;;;2.97;100.00;99824.45;1656539;85;20932;-76
2022/11/08 04:24:06;;;;;;;39.92;21.75;;;;;;;2.98;100.00;99823.38;1659122;85;21646;-76
2022/11/08 04:26:39;;;;;;;42.83;21.75;;;;;;;2.99;100.00;99827.19;1658654;84;21170;-76
2022/11/08 04:29:12;;;;;;;57.23;29.77;;;;;;;3.05;100.00;99823.16;1657713;85;21058;-76
2022/11/08 04:31:41;;;;;;;57.78;29.60;;;;;;;3.08;100.00;99827.53;1675279;83;21489;-76
2022/11/08 04:34:10;;;;;;;52.70;26.60;;;;;;;3.09;100.00;99818.86;1685627;84;21549;-77
2022/11/08 04:36:42;;;;;;;57.00;25.65;;;;;;;3.08;100.00;99822.11;1656127;85;21545;-76
2022/11/08 04:39:20;;;;;;;59.77;31.52;;;;;;;3.09;100.00;99814.25;1669032;85;20899;-78
2022/11/08 04:41:52;;;;;;;39.73;24.80;;;;;;;3.12;100.00;99816.98;1677205;84;21546;-78
2022/11/08 04:44:21;;;;;;;49.65;25.92;;;;;;;3.09;100.00;99815.61;1689489;84;20915;-79
2022/11/08 04:46:50;;;;;;;75.97;34.45;;;;;;;3.05;100.00;99815.84;1685579;84;20934;-79
2022/11/08 04:49:19;;;;;;;57.17;30.65;;;;;;;3.00;100.00;99821.23;1659189;86;21811;-79
2022/11/08 04:51:53;;;;;;;56.02;30.85;;;;;;;2.96;100.00;99825.00;1669858;84;21050;-78
2022/11/08 04:54:28;;;;;;;67.32;36.80;;;;;;;2.94;100.00;99822.27;1637765;86;21509;-79
2022/11/08 04:56:59;;;;;;;58.98;34.50;;;;;;;2.95;100.00;99823.36;1693258;84;20952;-77
2022/11/08 04:59:32;;;;;;;55.10;31.42;;;;;;;2.96;100.00;99825.53;1689463;84;20991;-79
2022/11/08 05:02:02;;;;;;;53.17;28.80;;;;;;;2.96;100.00;99825.53;1649862;85;21003;-78
2022/11/08 05:04:32;;;;;;;37.55;19.70;;;;;;;2.97;100.00;99827.17;1679288;84;20951;-77
2022/11/08 05:07:05;;;;;;;;;;;;;;;2.99;100.00;99822.30;1667412;85;21481;-78
2022/11/08 05:09:42;;;;;;;35.33;19.60;;;;;;;2.99;100.00;99831.26;1656360;86;20116;-77
2022/11/08 05:12:15;;;;;;;31.30;18.55;;;;;;;2.98;100.00;99830.98;1660225;85;21107;-77
2022/11/08 05:14:53;;;;;;;32.35;16.62;;;;;;;3.00;100.00;99832.08;1661036;84;21219;-77
2022/11/08 05:17:22;;;;;;;36.73;19.20;;;;;;;3.03;100.00;99832.09;1661632;85;20883;-77
2022/11/08 05:25:25;;;;;;;45.92;23.67;;;;;;;3.10;100.00;99837.58;1651270;85;21460;-76
2022/11/08 05:27:59;;;;;;;50.12;24.85;;;;;;;3.12;100.00;99839.50;1655220;85;21148;-78
2022/11/08 05:30:32;;;;;;;55.70;25.20;;;;;;;3.13;100.00;99837.61;1653367;86;21500;-79
2022/11/08 05:33:00;;;;;;;44.03;23.32;;;;;;;3.10;100.00;99833.52;1651695;85;21003;-75
2022/11/08 05:35:31;;;;;;;44.33;24.65;;;;;;;3.09;100.00;99837.30;1656885;85;20983;-78
2022/11/08 05:37:59;;;;;;;38.15;21.33;;;;;;;3.10;100.00;99841.66;1649162;85;21000;-77
2022/11/08 05:40:32;;;;;;;34.95;19.00;;;;;;;3.11;100.00;99838.41;1706260;83;21072;-78
2022/11/08 05:43:05;;;;;;;32.63;19.00;;;;;;;3.15;100.00;99835.45;1703751;83;20919;-77
2022/11/08 05:45:37;;;;;;;44.53;20.37;;;;;;;3.19;100.00;99836.56;1676011;83;21156;-76
2022/11/08 05:48:13;;;;;;;41.58;22.27;;;;;;;3.22;100.00;99847.72;1691911;83;20920;-77
2022/11/08 05:50:45;;;;;;;37.53;20.90;;;;;;;3.26;100.00;99854.80;1704814;83;21530;-76
2022/11/08 05:53:20;;;;;;;34.27;16.07;;;;;;;3.28;100.00;99861.60;1666109;83;20935;-78
2022/11/08 05:56:01;;;;;;;30.23;15.55;;;;;;;3.31;100.00;99865.69;1669700;84;20967;-84
2022/11/08 05:58:28;;;;;;;29.02;15.10;;;;;;;3.37;100.00;99876.05;1634817;85;21105;-84
2022/11/08 06:01:07;;;;;;;28.12;15.90;;;;;;;3.37;100.00;99876.05;1630521;86;20999;-77
2022/11/08 06:03:37;;;;;;;31.85;15.50;;;;;;;3.43;100.00;99876.36;1649811;84;21075;-77
2022/11/08 06:06:10;;;;;;;29.02;15.85;;;;;;;3.43;100.00;99871.75;1628750;87;22199;-78
2022/11/08 06:08:43;;;;;;;32.30;14.68;;;;;;;3.45;100.00;99862.81;1612008;87;21025;-81
2022/11/08 06:11:15;;;;;;;29.85;15.38;;;;;;;3.47;100.00;99863.87;1609830;87;20950;-76
2022/11/08 06:13:43;;;;;;;32.30;16.60;;;;;;;3.49;100.00;99863.89;1653555;85;21038;-76
2022/11/08 06:16:17;;;;;;;34.33;17.57;;;;;;;3.49;100.00;99861.17;1638816;86;20927;-77
2022/11/08 06:18:49;;;;;;;34.88;17.02;;;;;;;3.49;100.00;99861.17;1657721;85;21170;-74
2022/11/08 06:21:19;;;;;;;31.93;17.73;;;;;;;3.50;100.00;99862.81;1647715;84;20875;-81
2022/11/08 06:23:55;;;;;;;35.50;18.95;;;;;;;3.51;100.00;99851.42;1690416;84;20955;-79
2022/11/08 06:26:25;;;;;;;44.05;20.37;;;;;;;3.52;100.00;99847.63;1683351;85;20955;-78
2022/11/08 06:28:54;;;;;;;41.83;21.20;;;;;;;3.55;100.00;99843.03;1682833;85;20983;-81
2022/11/08 06:31:27;;;;;;;45.05;23.27;;;;;;;3.55;100.00;99843.03;1682542;84;21216;-81
2022/11/08 06:33:57;;;;;;;45.38;20.77;;;;;;;3.56;100.00;99864.48;1666669;84;20931;-79
2022/11/08 06:36:26;;;;;;;37.88;18.82;;;;;;;3.56;100.00;99857.69;1698922;83;21003;-80
2022/11/08 06:38:57;;;;;;;33.98;17.92;;;;;;;3.57;100.00;99862.58;1700550;83;21467;-73
2022/11/08 06:41:26;;;;;;;33.35;17.65;;;;;;;3.59;100.00;99863.14;1652735;86;21451;-74
2022/11/08 06:43:56;;;;;;;37.10;17.90;;;;;;;3.62;100.00;99857.19;1644293;85;22164;-79
2022/11/08 06:46:24;;;;;;;36.23;18.87;;;;;;;3.67;100.00;99865.91;1630810;86;21060;-75
2022/11/08 06:48:53;;;;;;;39.80;18.95;;;;;;;3.67;100.00;99864.01;1647598;85;20880;-75
2022/11/08 06:51:20;;;;;;;31.82;17.23;;;;;;;3.68;100.00;99864.28;1659966;85;21078;-76
2022/11/08 06:53:48;;;;;;;31.55;18.55;;;;;;;3.70;100.00;99866.20;1662679;85;20931;-81
2022/11/08 06:56:16;;;;;;;33.45;17.95;;;;;;;3.73;100.00;99862.95;1659813;84;20915;-86
2022/11/08 06:58:46;;;;;;;36.00;18.67;;;;;;;3.76;100.00;99861.07;1621543;87;20981;-86
2022/11/08 07:01:12;;;;;;;37.10;18.12;;;;;;;3.79;100.00;99862.45;1645711;87;21495;-84
2022/11/08 07:03:43;;;;;;;34.55;18.07;;;;;;;3.82;100.00;99857.30;1645956;87;21590;-79
2022/11/08 07:06:15;;;;;;;45.87;20.63;;;;;;;3.86;100.00;99860.31;1646099;87;20944;-79
2022/11/08 07:08:46;;;;;;;39.20;19.17;;;;;;;3.89;100.00;99852.45;1645898;87;21257;-81
2022/11/08 07:11:17;;;;;;;37.88;18.25;;;;;;;3.93;100.00;99859.53;1645369;86;20909;-80
2022/11/08 07:13:47;;;;;;;37.78;19.20;;;;;;;3.96;100.00;99859.82;1658515;85;20952;-79
2022/11/08 07:16:19;;;;;;;44.03;20.40;;;;;;;4.00;100.00;99856.03;1656178;85;20971;-75
2022/11/08 07:18:54;;;;;;;42.60;19.60;;;;;;;4.03;100.00;99858.77;1646995;84;21431;-93
2022/11/08 07:21:27;;;;;;;39.13;19.35;;;;;;;4.06;100.00;99860.92;1637286;86;21573;-87
2022/11/08 07:23:54;;;;;;;37.53;19.65;;;;;;;4.08;100.00;99865.55;1631700;87;21019;-78
2022/11/08 07:26:27;;;;;;;38.08;18.05;;;;;;;4.09;100.00;99855.77;1691318;83;32566;-81
2022/11/08 07:28:55;;;;;;;39.88;19.50;;;;;;;4.10;100.00;99862.03;1667337;85;21550;-76
2022/11/08 07:31:24;;;;;;;45.70;19.90;;;;;;;4.12;100.00;99865.30;1673237;85;20994;-87
2022/11/08 07:33:56;;;;;;;40.83;18.67;;;;;;;4.14;100.00;99868.02;1665998;84;21026;-82
2022/11/08 07:36:26;;;;;;;44.08;19.62;;;;;;;4.20;100.00;99866.14;1648364;85;21097;-74
2022/11/08 07:38:59;;;;;;;45.00;20.88;;;;;;;4.20;100.00;99866.14;1673597;84;21525;-82
2022/11/08 07:41:31;;;;;;;45.80;22.07;;;;;;;4.22;100.00;99873.48;1652060;85;20995;-84
2022/11/08 07:44:00;;;;;;;53.65;22.27;;;;;;;4.24;100.00;99871.33;1674979;85;21441;-82
2022/11/08 07:46:33;;;;;;;59.45;22.37;;;;;;;4.26;100.00;99865.08;1668155;84;21313;-84
2022/11/08 07:49:13;;;;;;;59.85;22.65;;;;;;;4.30;100.00;99879.23;1675214;84;21010;-76
2022/11/08 07:51:42;;;;;;;59.95;22.70;;;;;;;4.35;100.00;99880.34;1681362;84;21655;-82
2022/11/08 07:54:16;;;;;;;54.77;22.77;;;;;;;4.38;100.00;99883.34;1639769;85;21038;-76
2022/11/08 07:56:43;;;;;;;56.35;23.00;;;;;;;4.41;100.00;99877.37;1615207;87;21083;-80
2022/11/08 07:59:14;;;;;;;52.55;21.37;;;;;;;4.45;100.00;99874.39;1618391;86;21226;-76
2022/11/08 08:01:45;;;;;;;47.58;20.25;;;;;;;4.50;100.00;99883.11;1616614;88;21457;-79
2022/11/08 08:04:21;;;;;;;54.20;21.52;;;;;;;4.53;100.00;99873.88;1619698;88;20945;-79
2022/11/08 08:06:52;;;;;;;56.15;22.80;;;;;;;4.58;100.00;99876.61;1599611;88;21015;-80
2022/11/08 08:09:28;;;;;;;47.85;20.70;;;;;;;4.62;100.00;99876.31;1622276;88;21031;-77
2022/11/08 08:11:57;;;;;;;43.93;21.53;;;;;;;4.69;100.00;99875.23;1627565;86;21763;-78
2022/11/08 08:14:29;;;;;;;44.42;21.90;;;;;;;4.73;100.00;99870.35;1629635;86;20917;-76
2022/11/08 08:17:03;;;;;;;42.70;20.80;;;;;;;4.79;100.00;99871.18;1636407;86;21554;-82
2022/11/08 08:19:38;;;;;;;45.47;19.23;;;;;;;4.85;100.00;99871.46;1608716;88;21495;-72
2022/11/08 08:22:04;;;;;;;47.95;20.15;;;;;;;4.92;100.00;99866.03;1628200;87;22213;-83
2022/11/08 08:24:36;;;;;;;40.12;20.97;;;;;;;5.09;100.00;99865.77;1621444;86;21765;-76
2022/11/08 08:27:07;;;;;;;40.28;19.67;;;;;;;5.18;100.00;99873.67;1605525;86;21574;-74
2022/11/08 08:29:37;;;;;;;44.67;21.30;;;;;;;5.28;100.00;99860.57;1626335;86;21080;-75
2022/11/08 08:32:07;;;;;;;39.78;19.95;;;;;;;5.46;100.00;99860.02;1643768;87;21010;-73
2022/11/08 08:34:38;;;;;;;42.85;22.05;;;;;;;5.59;100.00;99856.73;1626292;86;20963;-76
2022/11/08 08:37:09;;;;;;;41.58;21.05;;;;;;;5.73;100.00;99858.88;1595368;88;21181;-74
2022/11/08 08:39:36;;;;;;;44.60;21.52;;;;;;;6.00;100.00;99851.72;1664484;84;20907;-83
2022/11/08 08:42:04;;;;;;;37.78;20.97;;;;;;;6.42;100.00;99846.60;1665752;85;21070;-80
2022/11/08 08:44:40;;;;;;;44.83;20.15;;;;;;;6.74;100.00;99850.79;1673025;85;21450;-82
2022/11/08 08:47:11;;;;;;;47.67;18.87;;;;;;;7.02;100.00;99854.11;1626899;86;21032;-74
2022/11/08 08:49:40;;;;;;;39.25;19.35;;;;;;;7.38;100.00;99852.45;1673446;84;21242;-77
2022/11/08 08:52:10;;;;;;;36.93;19.50;;;;;;;7.72;100.00;99849.64;1669131;84;20915;-75
2022/11/08 08:54:41;;;;;;;35.78;19.20;;;;;;;8.06;100.00;99843.52;1680953;84;21126;-77
2022/11/08 08:57:11;;;;;;;33.18;16.93;;;;;;;8.50;100.00;99845.16;1670827;85;20947;-76
2022/11/08 08:59:42;;;;;;;31.75;17.73;;;;;;;8.95;100.00;99840.91;1678135;84;21076;-76
2022/11/08 09:02:11;;;;;;;31.90;16.20;;;;;;;9.37;100.00;99840.47;1701371;83;21530;-75
2022/11/08 09:04:40;;;;;;;31.17;17.30;;;;;;;9.69;100.00;99844.55;1680973;83;20895;-76
2022/11/08 09:07:09;;;;;;;33.13;16.50;;;;;;;9.94;100.00;99843.23;1676298;84;20996;-75
2022/11/08 09:09:38;;;;;;;36.07;17.90;;;;;;;10.24;100.00;99847.33;1672799;84;21030;-74
2022/11/08 09:12:07;;;;;;;37.15;17.40;;;;;;;10.64;100.00;99844.80;1694228;83;21431;-75
2022/11/08 09:14:37;;;;;;;32.28;16.37;;;;;;;10.97;100.00;99835.81;1667439;84;20943;-76
2022/11/08 09:17:06;;;;;;;32.83;18.80;;;;;;;11.25;100.00;99833.16;1697226;83;20963;-80
2022/11/08 09:19:35;;;;;;;30.70;16.05;;;;;;;11.43;100.00;99834.91;1704065;83;21100;-87
2022/11/08 09:22:04;;;;;;;33.20;16.48;;;;;;;11.65;99.85;99824.97;1669934;84;20999;-77
2022/11/08 09:24:34;;;;;;;30.70;16.15;;;;;;;11.89;99.10;99829.56;1654377;84;21069;-77
2022/11/08 09:27:15;;;;;;;31.57;17.35;;;;;;;12.06;95.61;99828.26;1692217;84;21148;-76
2022/11/08 09:29:36;;;;;;;28.42;16.27;;;;;;;12.19;94.48;99824.55;1684071;84;21105;-76
2022/11/08 09:32:09;;;;;;;32.80;18.00;;;;;;;12.42;93.22;99824.44;1702240;83;21458;-76
2022/11/08 09:34:44;;;;;;;35.20;18.35;;;;;;;12.66;90.36;99822.62;1698568;83;20975;-76
2022/11/08 09:37:13;;;;;;;32.75;18.40;;;;;;;12.71;88.77;99820.48;1706259;83;20959;-78
2022/11/08 09:39:42;;;;;;;32.03;18.82;;;;;;;12.76;89.51;99823.08;1705775;83;21928;-74
2022/11/08 09:42:27;;;;;;;32.65;18.60;;;;;;;13.02;88.88;99823.66;1686351;84;21534;-73
2022/11/08 09:45:21;;;;;;;27.77;16.27;;;;;;;13.35;87.58;99821.19;1685729;84;20906;-74
2022/11/08 09:48:02;;;;;;;29.60;16.35;;;;;;;13.65;86.93;99815.20;1687255;83;21072;-76
2022/11/08 09:50:38;;;;;;;30.48;16.35;;;;;;;14.15;87.04;99821.62;1688984;83;20851;-74
2022/11/08 09:53:34;;;;;;;25.55;15.28;;;;;;;14.50;82.42;99819.47;1685940;83;21157;-74
2022/11/08 09:56:30;;;;;;;27.20;14.55;;;;;;;14.72;80.91;99821.69;1686653;83;21184;-73
2022/11/08 09:59:21;;;;;;;26.27;15.08;;;;;;;14.92;78.25;99818.12;1686876;84;20899;-75
2022/11/08 10:01:47;;;;;;;25.40;15.15;;;;;;;14.96;78.40;99824.59;1696961;83;20995;-81
2022/11/08 10:04:18;;;;;;;29.32;15.68;;;;;;;15.10;76.34;99816.79;1692313;83;20899;-76
2022/11/08 10:07:17;;;;;;;27.90;16.17;;;;;;;15.10;77.25;99814.02;1701273;83;21774;-74
2022/11/08 10:10:14;;;;;;;28.65;15.43;;;;;;;15.30;75.38;99813.76;1654807;85;21085;-72
2022/11/08 10:13:08;;;;;;;31.68;16.45;;;;;;;15.55;75.14;99817.98;1650008;85;21023;-72
2022/11/08 10:16:13;;;;;;;29.18;15.70;;;;;;;15.98;74.22;99809.18;1681420;83;21541;-72
2022/11/08 10:19:01;;;;;;;27.00;16.48;;;;;;;16.24;71.66;99810.20;1688116;83;21497;-71
2022/11/08 10:21:51;;;;;;;26.77;16.23;;;;;;;16.15;70.79;99806.19;1690438;84;21783;-74
2022/11/08 10:24:34;;;;;;;34.63;18.75;;;;;;;15.95;71.22;99798.80;1687263;84;21064;-75
2022/11/08 10:27:03;;;;;;;22.40;14.90;;;;;;;15.50;71.41;99809.33;1651033;85;21481;-77
2022/11/08 10:29:40;;;;;;;29.67;15.48;;;;;;;15.04;72.62;99811.80;1653658;85;21146;-74
2022/11/08 10:32:20;;;;;;;27.95;15.63;;;;;;;14.89;74.64;99805.55;1655002;83;21122;-85
2022/11/08 10:34:59;;;;;;;28.45;17.32;;;;;;;14.77;73.50;99818.72;1634587;85;21318;-76
2022/11/08 10:37:26;;;;;;;26.62;14.73;;;;;;;14.57;74.01;99808.47;1651993;85;21478;-79
2022/11/08 10:40:26;;;;;;;25.55;15.93;;;;;;;14.33;75.48;99811.30;1658033;85;21030;-85
2022/11/08 10:43:01;;;;;;;24.82;15.13;;;;;;;14.33;76.62;99812.67;1640120;87;20980;-85
2022/11/08 10:45:30;;;;;;;30.10;15.32;;;;;;;14.43;77.40;99816.46;1656553;85;21046;-76
2022/11/08 10:47:59;;;;;;;29.57;16.27;;;;;;;14.29;76.75;99814.48;1669931;84;20982;-76
2022/11/08 10:50:42;;;;;;;27.45;17.45;;;;;;;14.06;77.30;99813.95;1702756;83;21024;-76
2022/11/08 10:53:28;;;;;;;25.10;15.58;;;;;;;13.80;77.99;99815.47;1696983;83;21035;-76
2022/11/08 10:56:06;;;;;;;25.72;15.45;;;;;;;13.44;78.58;99813.71;1701942;84;21390;-75
2022/11/08 10:58:57;;;;;;;25.92;16.40;;;;;;;13.02;80.21;99814.82;1701324;83;21165;-82
2022/11/08 11:01:22;;;;;;;30.05;18.45;;;;;;;12.68;82.18;99809.34;1698327;83;21544;-75
2022/11/08 11:03:58;;;;;;;31.77;17.42;;;;;;;12.43;84.50;99813.11;1703619;83;21600;-74
2022/11/08 11:06:33;;;;;;;25.50;16.27;;;;;;;12.27;85.95;99813.31;1705914;82;20892;-73
2022/11/08 11:09:20;;;;;;;32.48;18.92;;;;;;;12.11;87.98;99816.30;1690767;83;21510;-83
2022/11/08 11:11:57;;;;;;;27.13;16.60;;;;;;;12.00;89.65;99821.84;1651769;85;21125;-79
2022/11/08 11:14:25;;;;;;;31.90;19.55;;;;;;;11.92;90.55;99818.49;1667423;85;21027;-76
2022/11/08 11:17:06;;;;;;;29.60;17.37;;;;;;;11.82;91.66;99817.64;1659851;84;21030;-89
2022/11/08 11:19:33;;;;;;;31.20;19.60;;;;;;;11.77;93.29;99819.72;1667094;84;21075;-87
2022/11/08 11:22:06;;;;;;;30.90;18.65;;;;;;;11.65;93.22;99817.53;1663586;84;20963;-79
2022/11/08 11:24:49;;;;;;;29.85;17.27;;;;;;;11.57;94.07;99823.80;1653749;86;21499;-81
2022/11/08 11:27:33;;;;;;;23.22;14.23;;;;;;;11.49;95.67;99819.09;1649271;85;21884;-81
2022/11/08 11:30:24;;;;;;;24.12;12.45;;;;;;;11.43;95.04;99825.84;1622549;88;21548;-85
2022/11/08 11:33:06;;;;;;;16.15;9.95;;;;;;;11.36;91.59;99824.91;1618053;87;21583;-89
2022/11/08 11:35:44;;;;;;;15.40;10.65;;;;;;;11.21;88.20;99815.12;1677025;83;21568;-81
2022/11/08 11:38:17;;;;;;;18.92;9.83;;;;;;;11.15;89.60;99825.98;1688557;84;21592;-77
2022/11/08 11:40:48;;;;;;;18.67;9.93;;;;;;;11.12;87.58;99821.11;1686153;83;21073;-83
2022/11/08 11:43:41;;;;;;;18.05;11.05;;;;;;;11.12;88.75;99821.67;1683071;83;20928;-83
2022/11/08 11:46:39;;;;;;;17.35;11.12;;;;;;;11.16;89.99;99828.17;1677576;85;21011;-80
2022/11/08 11:49:23;;;;;;;17.42;11.10;;;;;;;11.18;88.77;99826.73;1654101;84;20916;-78
2022/11/08 11:51:56;;;;;;;17.62;10.15;;;;;;;11.19;88.36;99834.41;1625780;85;21102;-78
2022/11/08 11:54:31;;;;;;;15.32;9.33;;;;;;;11.16;89.21;99838.60;1662296;85;21198;-78
2022/11/08 11:57:14;;;;;;;18.02;10.85;;;;;;;11.13;88.90;99831.54;1649785;85;21629;-78
2022/11/08 11:59:55;;;;;;;16.73;10.68;;;;;;;11.09;89.59;99848.41;1701061;83;21105;-89
2022/11/08 12:02:47;;;;;;;21.75;12.18;;;;;;;11.03;89.42;99840.03;1669221;85;21006;-77
2022/11/08 12:06:08;;;;;;;18.62;12.18;;;;;;;10.99;90.29;99841.21;1658811;85;20987;-76
2022/11/08 12:09:06;;;;;;;24.23;12.45;;;;;;;10.94;90.17;99846.86;1657032;85;21063;-84
2022/11/08 12:11:51;;;;;;;21.62;12.68;;;;;;;10.85;90.59;99847.34;1658040;85;21001;-77